sensor_id;sensor_type;location;lat;lon;timestamp;temperature;humidity
11822;DHT22;5968;50.362;8.982;2022-07-01T00:02:08;17.30;99.90
11822;DHT22;5968;50.362;8.982;2022-07-01T00:04:44;17.30;99.90
11822;DHT22;5968;50.362;8.982;2022-07-01T00:07:12;17.20;99.90
11822;DHT22;5968;50.362;8.982;2022-07-01T00:09:42;17.30;99.90
11822;DHT22;5968;50.362;8.982;2022-07-01T00:12:10;17.30;99.90
11822;DHT22;5968;50.362;8.982;2022-07-01T00:14:39;17.40;99.90
11822;DHT22;5968;50.362;8.982;2022-07-01T00:17:07;17.40;99.90
11822;DHT22;5968;50.362;8.982;2022-07-01T00:19:35;17.10;99.90
11822;DHT22;5968;50.362;8.982;2022-07-01T00:22:04;17.10;99.90
11822;DHT22;5968;50.362;8.982;2022-07-01T00:27:00;17.10;99.90
11822;DHT22;5968;50.362;8.982;2022-07-01T00:29:28;17.20;99.90
11822;DHT22;5968;50.362;8.982;2022-07-01T00:32:00;17.20;99.90
11822;DHT22;5968;50.362;8.982;2022-07-01T00:34:28;17.20;99.90
11822;DHT22;5968;50.362;8.982;2022-07-01T00:36:56;17.30;99.90
11822;DHT22;5968;50.362;8.982;2022-07-01T00:39:24;17.30;99.90
11822;DHT22;5968;50.362;8.982;2022-07-01T00:41:51;17.30;99.90
11822;DHT22;5968;50.362;8.982;2022-07-01T00:44:23;17.40;99.90
11822;DHT22;5968;50.362;8.982;2022-07-01T00:46:51;17.40;99.90
11822;DHT22;5968;50.362;8.982;2022-07-01T00:49:20;17.40;99.90
11822;DHT22;5968;50.362;8.982;2022-07-01T00:51:49;17.40;99.90
11822;DHT22;5968;50.362;8.982;2022-07-01T00:54:18;17.50;99.90
11822;DHT22;5968;50.362;8.982;2022-07-01T00:56:46;17.70;99.90
11822;DHT22;5968;50.362;8.982;2022-07-01T00:59:14;17.60;99.90
11822;DHT22;5968;50.362;8.982;2022-07-01T01:01:44;17.60;99.90
11822;DHT22;5968;50.362;8.982;2022-07-01T01:04:11;17.50;99.90
11822;DHT22;5968;50.362;8.982;2022-07-01T01:06:40;17.50;99.90
11822;DHT22;5968;50.362;8.982;2022-07-01T01:09:07;17.30;99.90
11822;DHT22;5968;50.362;8.982;2022-07-01T01:11:35;17.20;99.90
11822;DHT22;5968;50.362;8.982;2022-07-01T01:14:03;17.20;99.90
11822;DHT22;5968;50.362;8.982;2022-07-01T01:16:31;17.10;99.90
11822;DHT22;5968;50.362;8.982;2022-07-01T01:19:04;17.10;99.90
11822;DHT22;5968;50.362;8.982;2022-07-01T01:21:33;17.20;99.90
11822;DHT22;5968;50.362;8.982;2022-07-01T01:24:01;17.10;99.90
11822;DHT22;5968;50.362;8.982;2022-07-01T01:26:29;17.00;99.90
11822;DHT22;5968;50.362;8.982;2022-07-01T01:28:57;16.90;99.90
11822;DHT22;5968;50.362;8.982;2022-07-01T01:31:30;16.90;99.90
11822;DHT22;5968;50.362;8.982;2022-07-01T01:34:00;17.00;99.90
11822;DHT22;5968;50.362;8.982;2022-07-01T01:36:29;16.80;99.90
11822;DHT22;5968;50.362;8.982;2022-07-01T01:38:58;16.90;99.90
11822;DHT22;5968;50.362;8.982;2022-07-01T01:41:29;16.80;99.90
11822;DHT22;5968;50.362;8.982;2022-07-01T01:43:57;16.70;99.90
11822;DHT22;5968;50.362;8.982;2022-07-01T01:46:25;16.70;99.90
11822;DHT22;5968;50.362;8.982;2022-07-01T01:51:25;16.80;99.90
11822;DHT22;5968;50.362;8.982;2022-07-01T01:53:53;16.70;99.90
11822;DHT22;5968;50.362;8.982;2022-07-01T01:56:22;16.60;99.90
11822;DHT22;5968;50.362;8.982;2022-07-01T01:58:51;16.50;99.90
11822;DHT22;5968;50.362;8.982;2022-07-01T02:01:19;16.60;99.90
11822;DHT22;5968;50.362;8.982;2022-07-01T02:03:48;16.50;99.90
11822;DHT22;5968;50.362;8.982;2022-07-01T02:06:18;16.40;99.90
11822;DHT22;5968;50.362;8.982;2022-07-01T02:08:46;16.40;99.90
11822;DHT22;5968;50.362;8.982;2022-07-01T02:11:14;16.40;99.90
11822;DHT22;5968;50.362;8.982;2022-07-01T02:13:44;16.40;99.90
11822;DHT22;5968;50.362;8.982;2022-07-01T02:16:19;16.20;99.90
11822;DHT22;5968;50.362;8.982;2022-07-01T02:18:47;16.30;99.90
11822;DHT22;5968;50.362;8.982;2022-07-01T02:21:15;16.30;99.90
11822;DHT22;5968;50.362;8.982;2022-07-01T02:23:43;16.10;99.90
11822;DHT22;5968;50.362;8.982;2022-07-01T02:28:39;19.90;99.90
11822;DHT22;5968;50.362;8.982;2022-07-01T02:31:08;16.00;99.90
11822;DHT22;5968;50.362;8.982;2022-07-01T02:33:36;15.90;99.90
11822;DHT22;5968;50.362;8.982;2022-07-01T02:36:04;16.00;99.90
11822;DHT22;5968;50.362;8.982;2022-07-01T02:38:32;15.90;99.90
11822;DHT22;5968;50.362;8.982;2022-07-01T02:43:28;15.90;99.90
11822;DHT22;5968;50.362;8.982;2022-07-01T02:45:56;15.90;99.90
11822;DHT22;5968;50.362;8.982;2022-07-01T02:48:25;15.80;99.90
11822;DHT22;5968;50.362;8.982;2022-07-01T02:50:53;15.80;99.90
11822;DHT22;5968;50.362;8.982;2022-07-01T02:53:21;15.80;99.90
11822;DHT22;5968;50.362;8.982;2022-07-01T02:55:55;16.00;99.90
11822;DHT22;5968;50.362;8.982;2022-07-01T02:58:24;15.80;99.90
11822;DHT22;5968;50.362;8.982;2022-07-01T03:00:52;15.70;99.90
11822;DHT22;5968;50.362;8.982;2022-07-01T03:03:20;15.60;99.90
11822;DHT22;5968;50.362;8.982;2022-07-01T03:05:50;15.40;99.90
11822;DHT22;5968;50.362;8.982;2022-07-01T03:08:17;15.60;99.90
11822;DHT22;5968;50.362;8.982;2022-07-01T03:10:45;15.60;99.90
11822;DHT22;5968;50.362;8.982;2022-07-01T03:13:16;15.70;99.90
11822;DHT22;5968;50.362;8.982;2022-07-01T03:15:45;15.60;99.90
11822;DHT22;5968;50.362;8.982;2022-07-01T03:20:42;15.40;99.90
11822;DHT22;5968;50.362;8.982;2022-07-01T03:23:11;15.50;99.90
11822;DHT22;5968;50.362;8.982;2022-07-01T03:25:38;15.50;99.90
11822;DHT22;5968;50.362;8.982;2022-07-01T03:30:35;15.60;99.90
11822;DHT22;5968;50.362;8.982;2022-07-01T03:33:03;15.50;99.90
11822;DHT22;5968;50.362;8.982;2022-07-01T03:35:31;15.40;99.90
11822;DHT22;5968;50.362;8.982;2022-07-01T03:38:06;15.40;99.90
11822;DHT22;5968;50.362;8.982;2022-07-01T03:40:36;15.30;99.90
11822;DHT22;5968;50.362;8.982;2022-07-01T03:43:07;15.60;99.90
11822;DHT22;5968;50.362;8.982;2022-07-01T03:45:35;15.30;99.90
11822;DHT22;5968;50.362;8.982;2022-07-01T03:48:03;15.30;99.90
11822;DHT22;5968;50.362;8.982;2022-07-01T03:50:31;15.50;99.90
11822;DHT22;5968;50.362;8.982;2022-07-01T03:55:46;15.50;99.90
11822;DHT22;5968;50.362;8.982;2022-07-01T03:58:14;15.40;99.90
11822;DHT22;5968;50.362;8.982;2022-07-01T04:00:42;15.40;99.90
11822;DHT22;5968;50.362;8.982;2022-07-01T04:03:10;15.40;99.90
11822;DHT22;5968;50.362;8.982;2022-07-01T04:05:38;15.40;99.90
11822;DHT22;5968;50.362;8.982;2022-07-01T04:08:07;15.40;99.90
11822;DHT22;5968;50.362;8.982;2022-07-01T04:10:38;15.60;99.90
11822;DHT22;5968;50.362;8.982;2022-07-01T04:13:14;15.40;99.90
11822;DHT22;5968;50.362;8.982;2022-07-01T04:15:58;15.60;99.90
11822;DHT22;5968;50.362;8.982;2022-07-01T04:18:27;15.50;99.90
11822;DHT22;5968;50.362;8.982;2022-07-01T04:20:56;15.50;99.90
11822;DHT22;5968;50.362;8.982;2022-07-01T04:23:42;15.40;99.90
11822;DHT22;5968;50.362;8.982;2022-07-01T04:26:10;15.60;99.90
11822;DHT22;5968;50.362;8.982;2022-07-01T04:28:59;15.40;99.90
11822;DHT22;5968;50.362;8.982;2022-07-01T04:31:27;15.60;99.90
11822;DHT22;5968;50.362;8.982;2022-07-01T04:33:54;15.70;99.90
11822;DHT22;5968;50.362;8.982;2022-07-01T04:36:22;15.80;99.90
11822;DHT22;5968;50.362;8.982;2022-07-01T04:38:50;15.70;99.90
11822;DHT22;5968;50.362;8.982;2022-07-01T04:41:19;15.70;99.90
11822;DHT22;5968;50.362;8.982;2022-07-01T04:44:08;15.80;99.90
11822;DHT22;5968;50.362;8.982;2022-07-01T04:46:35;15.70;99.90
11822;DHT22;5968;50.362;8.982;2022-07-01T04:49:03;15.80;99.90
11822;DHT22;5968;50.362;8.982;2022-07-01T04:54:01;15.90;99.90
11822;DHT22;5968;50.362;8.982;2022-07-01T04:56:29;15.90;99.90
11822;DHT22;5968;50.362;8.982;2022-07-01T04:58:57;16.00;99.90
11822;DHT22;5968;50.362;8.982;2022-07-01T05:01:27;16.10;99.90
11822;DHT22;5968;50.362;8.982;2022-07-01T05:03:55;16.00;99.90
11822;DHT22;5968;50.362;8.982;2022-07-01T05:06:23;16.20;99.90
11822;DHT22;5968;50.362;8.982;2022-07-01T05:08:52;16.20;99.90
11822;DHT22;5968;50.362;8.982;2022-07-01T05:11:20;16.20;99.90
11822;DHT22;5968;50.362;8.982;2022-07-01T05:13:48;16.20;99.90
11822;DHT22;5968;50.362;8.982;2022-07-01T05:16:16;16.30;99.90
11822;DHT22;5968;50.362;8.982;2022-07-01T05:18:45;16.30;99.90
11822;DHT22;5968;50.362;8.982;2022-07-01T05:21:31;16.00;99.90
11822;DHT22;5968;50.362;8.982;2022-07-01T05:24:16;16.00;99.90
11822;DHT22;5968;50.362;8.982;2022-07-01T05:26:44;15.80;99.90
11822;DHT22;5968;50.362;8.982;2022-07-01T05:29:11;15.90;99.90
11822;DHT22;5968;50.362;8.982;2022-07-01T05:34:12;15.90;99.90
11822;DHT22;5968;50.362;8.982;2022-07-01T05:36:40;16.00;99.90
11822;DHT22;5968;50.362;8.982;2022-07-01T05:39:08;16.00;99.90
11822;DHT22;5968;50.362;8.982;2022-07-01T05:41:36;16.00;99.90
11822;DHT22;5968;50.362;8.982;2022-07-01T05:44:04;16.10;99.90
11822;DHT22;5968;50.362;8.982;2022-07-01T05:46:31;16.10;99.90
11822;DHT22;5968;50.362;8.982;2022-07-01T05:48:59;16.10;99.90
11822;DHT22;5968;50.362;8.982;2022-07-01T05:51:29;16.20;99.90
11822;DHT22;5968;50.362;8.982;2022-07-01T05:53:56;16.20;99.90
11822;DHT22;5968;50.362;8.982;2022-07-01T05:56:26;16.20;99.90
11822;DHT22;5968;50.362;8.982;2022-07-01T05:58:54;16.10;99.90
11822;DHT22;5968;50.362;8.982;2022-07-01T06:01:23;16.20;99.90
11822;DHT22;5968;50.362;8.982;2022-07-01T06:03:50;16.10;99.90
11822;DHT22;5968;50.362;8.982;2022-07-01T06:06:18;16.20;99.90
11822;DHT22;5968;50.362;8.982;2022-07-01T06:08:48;16.20;99.90
11822;DHT22;5968;50.362;8.982;2022-07-01T06:11:16;16.00;99.90
11822;DHT22;5968;50.362;8.982;2022-07-01T06:13:44;16.20;99.90
11822;DHT22;5968;50.362;8.982;2022-07-01T06:16:11;16.20;99.90
11822;DHT22;5968;50.362;8.982;2022-07-01T06:18:39;16.30;99.90
11822;DHT22;5968;50.362;8.982;2022-07-01T06:21:07;16.30;99.90
11822;DHT22;5968;50.362;8.982;2022-07-01T06:23:35;16.40;99.90
11822;DHT22;5968;50.362;8.982;2022-07-01T06:26:06;16.40;99.90
11822;DHT22;5968;50.362;8.982;2022-07-01T06:28:34;16.40;99.90
11822;DHT22;5968;50.362;8.982;2022-07-01T06:31:01;16.40;99.90
11822;DHT22;5968;50.362;8.982;2022-07-01T06:33:29;16.50;99.90
11822;DHT22;5968;50.362;8.982;2022-07-01T06:35:57;16.60;99.90
11822;DHT22;5968;50.362;8.982;2022-07-01T06:38:28;16.60;99.90
11822;DHT22;5968;50.362;8.982;2022-07-01T06:40:56;16.60;99.90
11822;DHT22;5968;50.362;8.982;2022-07-01T06:43:43;17.20;99.90
11822;DHT22;5968;50.362;8.982;2022-07-01T06:46:11;16.70;99.90
11822;DHT22;5968;50.362;8.982;2022-07-01T06:48:39;16.70;99.90
11822;DHT22;5968;50.362;8.982;2022-07-01T06:53:35;16.80;99.90
11822;DHT22;5968;50.362;8.982;2022-07-01T06:56:03;16.80;99.90
11822;DHT22;5968;50.362;8.982;2022-07-01T06:58:31;16.80;99.90
11822;DHT22;5968;50.362;8.982;2022-07-01T07:01:02;16.90;99.90
11822;DHT22;5968;50.362;8.982;2022-07-01T07:03:30;16.80;99.90
11822;DHT22;5968;50.362;8.982;2022-07-01T07:06:00;16.90;99.90
11822;DHT22;5968;50.362;8.982;2022-07-01T07:08:29;16.90;99.90
11822;DHT22;5968;50.362;8.982;2022-07-01T07:11:00;16.80;99.90
11822;DHT22;5968;50.362;8.982;2022-07-01T07:13:37;16.70;99.90
11822;DHT22;5968;50.362;8.982;2022-07-01T07:16:06;16.70;99.90
11822;DHT22;5968;50.362;8.982;2022-07-01T07:18:35;16.70;99.90
11822;DHT22;5968;50.362;8.982;2022-07-01T07:21:03;17.00;99.90
11822;DHT22;5968;50.362;8.982;2022-07-01T07:23:35;16.80;99.90
11822;DHT22;5968;50.362;8.982;2022-07-01T07:26:48;16.80;99.90
11822;DHT22;5968;50.362;8.982;2022-07-01T07:29:48;16.70;99.90
11822;DHT22;5968;50.362;8.982;2022-07-01T07:33:13;16.70;99.90
11822;DHT22;5968;50.362;8.982;2022-07-01T07:39:07;16.80;99.90
11822;DHT22;5968;50.362;8.982;2022-07-01T07:42:29;16.90;99.90
11822;DHT22;5968;50.362;8.982;2022-07-01T07:45:26;17.00;99.90
11822;DHT22;5968;50.362;8.982;2022-07-01T07:47:54;16.90;99.90
11822;DHT22;5968;50.362;8.982;2022-07-01T07:50:23;16.90;99.90
11822;DHT22;5968;50.362;8.982;2022-07-01T07:52:51;16.90;99.90
11822;DHT22;5968;50.362;8.982;2022-07-01T07:55:19;17.20;99.90
11822;DHT22;5968;50.362;8.982;2022-07-01T07:57:47;16.70;99.90
11822;DHT22;5968;50.362;8.982;2022-07-01T08:00:16;16.70;99.90
11822;DHT22;5968;50.362;8.982;2022-07-01T08:02:44;16.70;99.90
11822;DHT22;5968;50.362;8.982;2022-07-01T08:05:13;16.70;99.90
11822;DHT22;5968;50.362;8.982;2022-07-01T08:07:43;16.70;99.90
11822;DHT22;5968;50.362;8.982;2022-07-01T08:10:12;16.70;99.90
11822;DHT22;5968;50.362;8.982;2022-07-01T08:12:40;16.70;99.90
11822;DHT22;5968;50.362;8.982;2022-07-01T08:15:09;16.70;99.90
11822;DHT22;5968;50.362;8.982;2022-07-01T08:17:37;16.80;99.90
11822;DHT22;5968;50.362;8.982;2022-07-01T08:20:06;16.80;99.90
11822;DHT22;5968;50.362;8.982;2022-07-01T08:22:34;16.70;99.90
11822;DHT22;5968;50.362;8.982;2022-07-01T08:25:04;16.60;99.90
11822;DHT22;5968;50.362;8.982;2022-07-01T08:27:32;16.50;99.90
11822;DHT22;5968;50.362;8.982;2022-07-01T08:30:00;16.40;99.90
11822;DHT22;5968;50.362;8.982;2022-07-01T08:32:28;16.40;99.90
11822;DHT22;5968;50.362;8.982;2022-07-01T08:34:55;16.50;99.90
11822;DHT22;5968;50.362;8.982;2022-07-01T08:37:23;16.30;99.90
11822;DHT22;5968;50.362;8.982;2022-07-01T08:39:51;16.20;99.90
11822;DHT22;5968;50.362;8.982;2022-07-01T08:42:20;16.10;99.90
11822;DHT22;5968;50.362;8.982;2022-07-01T08:44:48;16.00;99.90
11822;DHT22;5968;50.362;8.982;2022-07-01T08:47:16;16.00;99.90
11822;DHT22;5968;50.362;8.982;2022-07-01T08:49:44;15.90;99.90
11822;DHT22;5968;50.362;8.982;2022-07-01T08:52:12;15.80;99.90
11822;DHT22;5968;50.362;8.982;2022-07-01T08:54:39;15.90;99.90
11822;DHT22;5968;50.362;8.982;2022-07-01T08:57:07;15.90;99.90
11822;DHT22;5968;50.362;8.982;2022-07-01T08:59:36;15.70;99.90
11822;DHT22;5968;50.362;8.982;2022-07-01T09:02:05;15.90;99.90
11822;DHT22;5968;50.362;8.982;2022-07-01T09:04:33;15.90;99.90
11822;DHT22;5968;50.362;8.982;2022-07-01T09:07:04;16.00;99.90
11822;DHT22;5968;50.362;8.982;2022-07-01T09:09:35;16.00;99.90
11822;DHT22;5968;50.362;8.982;2022-07-01T09:12:05;16.10;99.90
11822;DHT22;5968;50.362;8.982;2022-07-01T09:14:34;16.10;99.90
11822;DHT22;5968;50.362;8.982;2022-07-01T09:17:05;16.30;99.90
11822;DHT22;5968;50.362;8.982;2022-07-01T09:19:35;16.40;99.90
11822;DHT22;5968;50.362;8.982;2022-07-01T09:22:10;15.40;99.90
11822;DHT22;5968;50.362;8.982;2022-07-01T09:24:39;16.70;99.90
11822;DHT22;5968;50.362;8.982;2022-07-01T09:27:11;17.00;99.90
11822;DHT22;5968;50.362;8.982;2022-07-01T09:29:41;17.10;99.90
11822;DHT22;5968;50.362;8.982;2022-07-01T09:32:13;17.30;99.90
11822;DHT22;5968;50.362;8.982;2022-07-01T09:34:42;17.50;99.90
11822;DHT22;5968;50.362;8.982;2022-07-01T09:37:12;17.60;99.90
11822;DHT22;5968;50.362;8.982;2022-07-01T09:39:44;17.60;99.90
11822;DHT22;5968;50.362;8.982;2022-07-01T09:42:12;17.70;99.90
11822;DHT22;5968;50.362;8.982;2022-07-01T09:44:53;17.40;99.90
11822;DHT22;5968;50.362;8.982;2022-07-01T09:47:31;17.50;99.90
11822;DHT22;5968;50.362;8.982;2022-07-01T09:50:01;17.60;99.90
11822;DHT22;5968;50.362;8.982;2022-07-01T09:52:31;17.60;99.90
11822;DHT22;5968;50.362;8.982;2022-07-01T09:55:03;17.70;99.90
11822;DHT22;5968;50.362;8.982;2022-07-01T09:57:32;17.80;99.90
11822;DHT22;5968;50.362;8.982;2022-07-01T10:00:00;17.90;99.90
11822;DHT22;5968;50.362;8.982;2022-07-01T10:02:31;17.90;99.90
11822;DHT22;5968;50.362;8.982;2022-07-01T10:05:05;17.90;99.90
11822;DHT22;5968;50.362;8.982;2022-07-01T10:07:42;17.80;99.90
11822;DHT22;5968;50.362;8.982;2022-07-01T10:10:25;17.80;99.90
11822;DHT22;5968;50.362;8.982;2022-07-01T10:12:56;17.80;99.90
11822;DHT22;5968;50.362;8.982;2022-07-01T10:15:41;17.70;99.90
11822;DHT22;5968;50.362;8.982;2022-07-01T10:18:27;17.70;99.90
11822;DHT22;5968;50.362;8.982;2022-07-01T10:24:53;17.80;99.90
11822;DHT22;5968;50.362;8.982;2022-07-01T10:28:16;17.80;99.90
11822;DHT22;5968;50.362;8.982;2022-07-01T10:31:35;17.80;99.90
11822;DHT22;5968;50.362;8.982;2022-07-01T10:34:09;17.90;99.90
11822;DHT22;5968;50.362;8.982;2022-07-01T10:36:38;17.80;99.90
11822;DHT22;5968;50.362;8.982;2022-07-01T10:39:14;17.80;99.90
11822;DHT22;5968;50.362;8.982;2022-07-01T10:42:03;17.70;99.90
11822;DHT22;5968;50.362;8.982;2022-07-01T10:45:03;17.80;99.90
11822;DHT22;5968;50.362;8.982;2022-07-01T10:47:32;18.00;99.90
11822;DHT22;5968;50.362;8.982;2022-07-01T10:50:06;18.20;99.90
11822;DHT22;5968;50.362;8.982;2022-07-01T10:52:35;18.50;99.90
11822;DHT22;5968;50.362;8.982;2022-07-01T10:55:04;18.80;99.90
11822;DHT22;5968;50.362;8.982;2022-07-01T10:57:35;19.00;99.90
11822;DHT22;5968;50.362;8.982;2022-07-01T11:00:26;19.40;99.90
11822;DHT22;5968;50.362;8.982;2022-07-01T11:03:25;19.50;99.90
11822;DHT22;5968;50.362;8.982;2022-07-01T11:05:55;19.70;99.90
11822;DHT22;5968;50.362;8.982;2022-07-01T11:08:23;19.80;99.90
11822;DHT22;5968;50.362;8.982;2022-07-01T11:10:59;19.80;99.90
11822;DHT22;5968;50.362;8.982;2022-07-01T11:13:29;20.00;99.90
11822;DHT22;5968;50.362;8.982;2022-07-01T11:15:57;19.90;99.90
11822;DHT22;5968;50.362;8.982;2022-07-01T11:18:25;19.60;99.90
11822;DHT22;5968;50.362;8.982;2022-07-01T11:21:04;19.50;99.90
11822;DHT22;5968;50.362;8.982;2022-07-01T11:23:32;19.60;99.90
11822;DHT22;5968;50.362;8.982;2022-07-01T11:26:06;19.70;99.90
11822;DHT22;5968;50.362;8.982;2022-07-01T11:28:39;19.90;99.90
11822;DHT22;5968;50.362;8.982;2022-07-01T11:31:07;20.00;99.90
11822;DHT22;5968;50.362;8.982;2022-07-01T11:33:35;19.90;99.90
11822;DHT22;5968;50.362;8.982;2022-07-01T11:36:07;19.90;99.90
11822;DHT22;5968;50.362;8.982;2022-07-01T11:38:54;19.90;99.90
11822;DHT22;5968;50.362;8.982;2022-07-01T11:41:40;20.00;99.90
11822;DHT22;5968;50.362;8.982;2022-07-01T11:44:08;20.80;99.90
11822;DHT22;5968;50.362;8.982;2022-07-01T11:46:36;20.40;99.90
11822;DHT22;5968;50.362;8.982;2022-07-01T11:49:11;20.70;99.90
11822;DHT22;5968;50.362;8.982;2022-07-01T11:51:41;20.80;99.90
11822;DHT22;5968;50.362;8.982;2022-07-01T11:54:19;20.90;99.90
11822;DHT22;5968;50.362;8.982;2022-07-01T11:56:48;20.80;99.90
11822;DHT22;5968;50.362;8.982;2022-07-01T11:59:16;20.60;99.90
11822;DHT22;5968;50.362;8.982;2022-07-01T12:01:51;20.70;99.90
11822;DHT22;5968;50.362;8.982;2022-07-01T12:04:20;20.80;99.90
11822;DHT22;5968;50.362;8.982;2022-07-01T12:06:50;20.70;99.90
11822;DHT22;5968;50.362;8.982;2022-07-01T12:09:19;20.70;99.90
11822;DHT22;5968;50.362;8.982;2022-07-01T12:11:49;20.80;99.90
11822;DHT22;5968;50.362;8.982;2022-07-01T12:14:22;20.90;99.90
11822;DHT22;5968;50.362;8.982;2022-07-01T12:16:52;20.90;99.90
11822;DHT22;5968;50.362;8.982;2022-07-01T12:19:26;21.00;99.90
11822;DHT22;5968;50.362;8.982;2022-07-01T12:21:57;21.10;99.90
11822;DHT22;5968;50.362;8.982;2022-07-01T12:24:26;21.30;99.90
11822;DHT22;5968;50.362;8.982;2022-07-01T12:27:02;21.30;99.90
11822;DHT22;5968;50.362;8.982;2022-07-01T12:32:16;21.50;99.90
11822;DHT22;5968;50.362;8.982;2022-07-01T12:34:46;21.50;99.90
11822;DHT22;5968;50.362;8.982;2022-07-01T12:37:17;21.20;99.90
11822;DHT22;5968;50.362;8.982;2022-07-01T12:39:46;21.10;99.90
11822;DHT22;5968;50.362;8.982;2022-07-01T12:42:25;21.20;99.90
11822;DHT22;5968;50.362;8.982;2022-07-01T12:44:55;21.20;99.90
11822;DHT22;5968;50.362;8.982;2022-07-01T12:47:27;21.30;99.90
11822;DHT22;5968;50.362;8.982;2022-07-01T12:50:12;21.30;99.90
11822;DHT22;5968;50.362;8.982;2022-07-01T12:52:43;21.30;99.90
11822;DHT22;5968;50.362;8.982;2022-07-01T12:55:14;21.30;99.90
11822;DHT22;5968;50.362;8.982;2022-07-01T12:57:42;21.20;99.90
11822;DHT22;5968;50.362;8.982;2022-07-01T13:00:11;21.30;99.90
11822;DHT22;5968;50.362;8.982;2022-07-01T13:02:39;21.30;99.90
11822;DHT22;5968;50.362;8.982;2022-07-01T13:05:07;21.40;99.90
11822;DHT22;5968;50.362;8.982;2022-07-01T13:07:35;21.50;99.90
11822;DHT22;5968;50.362;8.982;2022-07-01T13:10:10;21.60;99.90
11822;DHT22;5968;50.362;8.982;2022-07-01T13:12:38;21.60;99.90
11822;DHT22;5968;50.362;8.982;2022-07-01T13:15:07;21.80;99.90
11822;DHT22;5968;50.362;8.982;2022-07-01T13:17:34;21.80;99.90
11822;DHT22;5968;50.362;8.982;2022-07-01T13:20:05;21.80;99.90
11822;DHT22;5968;50.362;8.982;2022-07-01T13:22:33;21.90;99.90
11822;DHT22;5968;50.362;8.982;2022-07-01T13:25:01;21.80;99.90
11822;DHT22;5968;50.362;8.982;2022-07-01T13:27:31;22.10;99.90
11822;DHT22;5968;50.362;8.982;2022-07-01T13:29:59;22.40;99.90
11822;DHT22;5968;50.362;8.982;2022-07-01T13:32:29;22.70;99.90
11822;DHT22;5968;50.362;8.982;2022-07-01T13:34:57;22.70;99.90
11822;DHT22;5968;50.362;8.982;2022-07-01T13:37:25;22.60;99.90
11822;DHT22;5968;50.362;8.982;2022-07-01T13:39:53;22.50;99.90
11822;DHT22;5968;50.362;8.982;2022-07-01T13:42:21;22.50;99.90
11822;DHT22;5968;50.362;8.982;2022-07-01T13:44:51;22.80;99.90
11822;DHT22;5968;50.362;8.982;2022-07-01T13:47:19;23.20;99.90
11822;DHT22;5968;50.362;8.982;2022-07-01T13:49:46;23.60;99.90
11822;DHT22;5968;50.362;8.982;2022-07-01T13:52:15;23.70;99.90
11822;DHT22;5968;50.362;8.982;2022-07-01T13:54:43;23.80;99.90
11822;DHT22;5968;50.362;8.982;2022-07-01T13:57:11;24.10;99.90
11822;DHT22;5968;50.362;8.982;2022-07-01T13:59:39;24.10;99.90
11822;DHT22;5968;50.362;8.982;2022-07-01T14:02:09;23.90;99.90
11822;DHT22;5968;50.362;8.982;2022-07-01T14:04:38;23.70;99.90
11822;DHT22;5968;50.362;8.982;2022-07-01T14:07:06;23.50;99.90
11822;DHT22;5968;50.362;8.982;2022-07-01T14:09:34;23.20;99.90
11822;DHT22;5968;50.362;8.982;2022-07-01T14:12:04;23.00;99.90
11822;DHT22;5968;50.362;8.982;2022-07-01T14:14:38;22.80;99.90
11822;DHT22;5968;50.362;8.982;2022-07-01T14:17:06;22.60;99.90
11822;DHT22;5968;50.362;8.982;2022-07-01T14:19:35;22.40;99.90
11822;DHT22;5968;50.362;8.982;2022-07-01T14:22:03;22.40;99.90
11822;DHT22;5968;50.362;8.982;2022-07-01T14:24:31;22.40;99.90
11822;DHT22;5968;50.362;8.982;2022-07-01T14:26:59;22.50;99.90
11822;DHT22;5968;50.362;8.982;2022-07-01T14:29:28;22.40;99.90
11822;DHT22;5968;50.362;8.982;2022-07-01T14:31:55;22.20;99.90
11822;DHT22;5968;50.362;8.982;2022-07-01T14:34:26;22.20;99.90
11822;DHT22;5968;50.362;8.982;2022-07-01T14:36:55;22.10;99.90
11822;DHT22;5968;50.362;8.982;2022-07-01T14:39:23;22.00;99.90
11822;DHT22;5968;50.362;8.982;2022-07-01T14:41:50;21.80;99.90
11822;DHT22;5968;50.362;8.982;2022-07-01T14:44:22;21.60;99.90
11822;DHT22;5968;50.362;8.982;2022-07-01T14:46:50;21.50;99.90
11822;DHT22;5968;50.362;8.982;2022-07-01T14:49:18;21.40;99.90
11822;DHT22;5968;50.362;8.982;2022-07-01T14:51:46;21.30;99.90
11822;DHT22;5968;50.362;8.982;2022-07-01T14:54:15;21.50;99.90
11822;DHT22;5968;50.362;8.982;2022-07-01T14:56:43;20.90;99.90
11822;DHT22;5968;50.362;8.982;2022-07-01T14:59:11;20.90;99.90
11822;DHT22;5968;50.362;8.982;2022-07-01T15:01:39;20.80;99.90
11822;DHT22;5968;50.362;8.982;2022-07-01T15:04:07;20.60;99.90
11822;DHT22;5968;50.362;8.982;2022-07-01T15:06:34;20.50;99.90
11822;DHT22;5968;50.362;8.982;2022-07-01T15:09:03;20.30;99.90
11822;DHT22;5968;50.362;8.982;2022-07-01T15:11:32;20.30;99.90
11822;DHT22;5968;50.362;8.982;2022-07-01T15:14:00;20.40;99.90
11822;DHT22;5968;50.362;8.982;2022-07-01T15:16:28;20.90;99.90
11822;DHT22;5968;50.362;8.982;2022-07-01T15:18:56;20.40;99.90
11822;DHT22;5968;50.362;8.982;2022-07-01T15:21:24;20.50;99.90
11822;DHT22;5968;50.362;8.982;2022-07-01T15:23:53;20.40;99.90
11822;DHT22;5968;50.362;8.982;2022-07-01T15:26:20;20.30;99.90
11822;DHT22;5968;50.362;8.982;2022-07-01T15:28:50;20.30;99.90
11822;DHT22;5968;50.362;8.982;2022-07-01T15:31:18;20.40;99.90
11822;DHT22;5968;50.362;8.982;2022-07-01T15:34:06;20.30;99.90
11822;DHT22;5968;50.362;8.982;2022-07-01T15:36:34;20.20;99.90
11822;DHT22;5968;50.362;8.982;2022-07-01T15:39:01;20.00;99.90
11822;DHT22;5968;50.362;8.982;2022-07-01T15:41:31;19.90;99.90
11822;DHT22;5968;50.362;8.982;2022-07-01T15:44:01;20.00;99.90
11822;DHT22;5968;50.362;8.982;2022-07-01T15:46:29;20.10;99.90
11822;DHT22;5968;50.362;8.982;2022-07-01T15:48:57;20.20;99.90
11822;DHT22;5968;50.362;8.982;2022-07-01T15:51:25;20.20;99.90
11822;DHT22;5968;50.362;8.982;2022-07-01T15:53:55;20.40;99.90
11822;DHT22;5968;50.362;8.982;2022-07-01T15:56:24;20.60;99.90
11822;DHT22;5968;50.362;8.982;2022-07-01T15:58:52;20.70;99.90
11822;DHT22;5968;50.362;8.982;2022-07-01T16:01:31;20.90;99.90
11822;DHT22;5968;50.362;8.982;2022-07-01T16:03:59;21.00;99.90
11822;DHT22;5968;50.362;8.982;2022-07-01T16:06:28;21.10;99.90
11822;DHT22;5968;50.362;8.982;2022-07-01T16:08:59;21.70;99.90
11822;DHT22;5968;50.362;8.982;2022-07-01T16:11:28;21.20;99.90
11822;DHT22;5968;50.362;8.982;2022-07-01T16:13:57;21.30;99.90
11822;DHT22;5968;50.362;8.982;2022-07-01T16:16:26;21.30;99.90
11822;DHT22;5968;50.362;8.982;2022-07-01T16:18:58;21.70;99.90
11822;DHT22;5968;50.362;8.982;2022-07-01T16:21:29;23.80;99.90
11822;DHT22;5968;50.362;8.982;2022-07-01T16:24:02;26.30;99.90
11822;DHT22;5968;50.362;8.982;2022-07-01T16:26:31;28.30;99.90
11822;DHT22;5968;50.362;8.982;2022-07-01T16:29:00;29.00;99.90
11822;DHT22;5968;50.362;8.982;2022-07-01T16:31:30;28.40;99.90
11822;DHT22;5968;50.362;8.982;2022-07-01T16:33:59;27.10;99.90
11822;DHT22;5968;50.362;8.982;2022-07-01T16:36:29;26.00;99.90
11822;DHT22;5968;50.362;8.982;2022-07-01T16:39:01;25.40;99.90
11822;DHT22;5968;50.362;8.982;2022-07-01T16:41:39;25.50;99.90
11822;DHT22;5968;50.362;8.982;2022-07-01T16:44:15;24.50;99.90